Grand Isle, Louisiana
Current Conditions -  °F | °C
As of 8:55 AM on Monday 22 Dec 2014 (Local Time) from KXPY Reporting Station
Broken Clouds Broken Clouds  
Wind Chill: 68°   Ceiling: 5500
Heat Index: 68°   Visibility: 8mi
Dew Point: 66°   Wind: 5mph
Humidity: 94%   Direction: 170°S
Pressure: 29.87"   Gusts: NA
Location:  29.24°N, 89.99°W
Report Text: KXPY 221455Z AUTO 17004KT 8SM SCT040 BKN055 BKN065 20/19 A2987 RMK A01
Loading
Personal Weather Stations






























Interactive Weather Map New forecast layout! Learn more

10-Day Weather Forecast

Advertisements
Track Severe Weather on mobile